sensor_id;sensor_type;location;lat;lon;timestamp;P1;durP1;ratioP1;P2;durP2;ratioP2
249;SDS011;109;19.806;-70.704;2023-12-22T00:00:19;79.20;;;11.23;;
249;SDS011;109;19.806;-70.704;2023-12-22T00:02:45;45.47;;;9.93;;
249;SDS011;109;19.806;-70.704;2023-12-22T00:05:12;31.30;;;8.13;;
249;SDS011;109;19.806;-70.704;2023-12-22T00:07:38;36.13;;;7.33;;
249;SDS011;109;19.806;-70.704;2023-12-22T00:10:05;17.43;;;7.43;;
249;SDS011;109;19.806;-70.704;2023-12-22T00:12:32;25.40;;;8.50;;
249;SDS011;109;19.806;-70.704;2023-12-22T00:14:58;17.33;;;8.20;;
249;SDS011;109;19.806;-70.704;2023-12-22T00:17:24;24.67;;;9.10;;
249;SDS011;109;19.806;-70.704;2023-12-22T00:19:51;32.73;;;6.77;;
249;SDS011;109;19.806;-70.704;2023-12-22T00:22:18;36.97;;;8.80;;
249;SDS011;109;19.806;-70.704;2023-12-22T00:24:44;49.27;;;11.30;;
249;SDS011;109;19.806;-70.704;2023-12-22T00:27:11;44.43;;;10.87;;
249;SDS011;109;19.806;-70.704;2023-12-22T00:29:37;29.13;;;9.80;;
249;SDS011;109;19.806;-70.704;2023-12-22T00:32:10;44.13;;;10.47;;
249;SDS011;109;19.806;-70.704;2023-12-22T00:34:37;36.63;;;9.43;;
249;SDS011;109;19.806;-70.704;2023-12-22T00:37:10;48.37;;;8.47;;
249;SDS011;109;19.806;-70.704;2023-12-22T00:39:38;70.97;;;10.57;;
249;SDS011;109;19.806;-70.704;2023-12-22T00:42:11;33.93;;;9.73;;
249;SDS011;109;19.806;-70.704;2023-12-22T00:44:37;43.40;;;8.53;;
249;SDS011;109;19.806;-70.704;2023-12-22T00:47:11;31.70;;;8.63;;
249;SDS011;109;19.806;-70.704;2023-12-22T00:49:38;43.10;;;9.67;;
249;SDS011;109;19.806;-70.704;2023-12-22T00:52:19;37.47;;;9.00;;
249;SDS011;109;19.806;-70.704;2023-12-22T00:54:52;48.13;;;9.80;;
249;SDS011;109;19.806;-70.704;2023-12-22T00:57:19;52.90;;;8.67;;
249;SDS011;109;19.806;-70.704;2023-12-22T00:59:51;39.13;;;9.33;;
249;SDS011;109;19.806;-70.704;2023-12-22T01:02:18;33.53;;;9.33;;
249;SDS011;109;19.806;-70.704;2023-12-22T01:04:52;35.43;;;9.30;;
249;SDS011;109;19.806;-70.704;2023-12-22T01:07:19;41.73;;;9.70;;
249;SDS011;109;19.806;-70.704;2023-12-22T01:09:51;32.13;;;10.20;;
249;SDS011;109;19.806;-70.704;2023-12-22T01:12:18;27.27;;;9.60;;
249;SDS011;109;19.806;-70.704;2023-12-22T01:14:51;16.87;;;7.90;;
249;SDS011;109;19.806;-70.704;2023-12-22T01:17:18;29.30;;;9.10;;
249;SDS011;109;19.806;-70.704;2023-12-22T01:19:50;27.33;;;8.20;;
249;SDS011;109;19.806;-70.704;2023-12-22T01:22:17;25.20;;;8.50;;
249;SDS011;109;19.806;-70.704;2023-12-22T01:24:50;26.90;;;9.27;;
249;SDS011;109;19.806;-70.704;2023-12-22T01:27:17;22.17;;;8.37;;
249;SDS011;109;19.806;-70.704;2023-12-22T01:29:50;26.13;;;8.40;;
249;SDS011;109;19.806;-70.704;2023-12-22T01:32:17;20.20;;;9.70;;
249;SDS011;109;19.806;-70.704;2023-12-22T01:34:51;23.93;;;7.60;;
249;SDS011;109;19.806;-70.704;2023-12-22T01:37:25;25.10;;;7.20;;
249;SDS011;109;19.806;-70.704;2023-12-22T01:39:58;19.97;;;7.23;;
249;SDS011;109;19.806;-70.704;2023-12-22T01:42:25;15.13;;;6.23;;
249;SDS011;109;19.806;-70.704;2023-12-22T01:44:58;17.23;;;6.70;;
249;SDS011;109;19.806;-70.704;2023-12-22T01:47:25;24.40;;;6.17;;
249;SDS011;109;19.806;-70.704;2023-12-22T01:49:58;18.90;;;5.57;;
249;SDS011;109;19.806;-70.704;2023-12-22T01:52:45;17.17;;;6.10;;
249;SDS011;109;19.806;-70.704;2023-12-22T01:55:18;14.80;;;5.90;;
249;SDS011;109;19.806;-70.704;2023-12-22T01:57:45;14.57;;;5.53;;
249;SDS011;109;19.806;-70.704;2023-12-22T02:00:20;15.17;;;6.37;;
249;SDS011;109;19.806;-70.704;2023-12-22T02:02:47;18.57;;;7.37;;
249;SDS011;109;19.806;-70.704;2023-12-22T02:05:20;21.07;;;6.73;;
249;SDS011;109;19.806;-70.704;2023-12-22T02:07:47;20.50;;;6.67;;
249;SDS011;109;19.806;-70.704;2023-12-22T02:10:20;21.43;;;6.10;;
249;SDS011;109;19.806;-70.704;2023-12-22T02:12:48;18.10;;;6.33;;
249;SDS011;109;19.806;-70.704;2023-12-22T02:15:20;14.90;;;5.63;;
249;SDS011;109;19.806;-70.704;2023-12-22T02:18:00;10.33;;;5.10;;
249;SDS011;109;19.806;-70.704;2023-12-22T02:20:39;30.43;;;5.67;;
249;SDS011;109;19.806;-70.704;2023-12-22T02:23:07;19.27;;;5.20;;
249;SDS011;109;19.806;-70.704;2023-12-22T02:25:39;27.73;;;5.80;;
249;SDS011;109;19.806;-70.704;2023-12-22T02:28:13;19.47;;;5.10;;
249;SDS011;109;19.806;-70.704;2023-12-22T02:30:58;23.30;;;5.53;;
249;SDS011;109;19.806;-70.704;2023-12-22T02:33:49;20.43;;;5.47;;
249;SDS011;109;19.806;-70.704;2023-12-22T02:36:27;20.33;;;5.20;;
249;SDS011;109;19.806;-70.704;2023-12-22T02:38:56;13.80;;;5.77;;
249;SDS011;109;19.806;-70.704;2023-12-22T02:41:32;20.77;;;5.13;;
249;SDS011;109;19.806;-70.704;2023-12-22T02:43:59;17.90;;;4.77;;
249;SDS011;109;19.806;-70.704;2023-12-22T02:46:33;12.83;;;5.17;;
249;SDS011;109;19.806;-70.704;2023-12-22T02:49:00;15.80;;;5.37;;
249;SDS011;109;19.806;-70.704;2023-12-22T02:51:33;12.20;;;5.00;;
249;SDS011;109;19.806;-70.704;2023-12-22T02:54:12;22.53;;;5.67;;
249;SDS011;109;19.806;-70.704;2023-12-22T02:56:39;17.27;;;7.40;;
249;SDS011;109;19.806;-70.704;2023-12-22T02:59:14;15.20;;;5.43;;
249;SDS011;109;19.806;-70.704;2023-12-22T03:01:41;29.53;;;8.23;;
249;SDS011;109;19.806;-70.704;2023-12-22T03:04:21;25.67;;;7.37;;
249;SDS011;109;19.806;-70.704;2023-12-22T03:06:54;23.97;;;6.27;;
249;SDS011;109;19.806;-70.704;2023-12-22T03:09:21;39.83;;;7.47;;
249;SDS011;109;19.806;-70.704;2023-12-22T03:11:54;26.93;;;6.90;;
249;SDS011;109;19.806;-70.704;2023-12-22T03:14:36;31.10;;;6.23;;
249;SDS011;109;19.806;-70.704;2023-12-22T03:17:04;41.73;;;6.07;;
249;SDS011;109;19.806;-70.704;2023-12-22T03:19:39;33.30;;;5.60;;
249;SDS011;109;19.806;-70.704;2023-12-22T03:22:06;31.53;;;5.50;;
249;SDS011;109;19.806;-70.704;2023-12-22T03:24:39;24.53;;;4.77;;
249;SDS011;109;19.806;-70.704;2023-12-22T03:27:06;29.10;;;5.97;;
249;SDS011;109;19.806;-70.704;2023-12-22T03:29:39;25.90;;;4.40;;
249;SDS011;109;19.806;-70.704;2023-12-22T03:32:06;25.80;;;5.00;;
249;SDS011;109;19.806;-70.704;2023-12-22T03:34:38;28.60;;;5.33;;
249;SDS011;109;19.806;-70.704;2023-12-22T03:37:05;31.27;;;5.50;;
249;SDS011;109;19.806;-70.704;2023-12-22T03:39:37;43.10;;;7.70;;
249;SDS011;109;19.806;-70.704;2023-12-22T03:42:04;25.90;;;5.70;;
249;SDS011;109;19.806;-70.704;2023-12-22T03:44:37;29.93;;;6.90;;
249;SDS011;109;19.806;-70.704;2023-12-22T03:47:11;30.70;;;7.37;;
249;SDS011;109;19.806;-70.704;2023-12-22T03:49:44;24.90;;;7.17;;
249;SDS011;109;19.806;-70.704;2023-12-22T03:52:31;24.60;;;6.03;;
249;SDS011;109;19.806;-70.704;2023-12-22T03:55:05;20.80;;;6.33;;
249;SDS011;109;19.806;-70.704;2023-12-22T03:57:31;21.70;;;5.33;;
249;SDS011;109;19.806;-70.704;2023-12-22T04:00:05;25.03;;;6.60;;
249;SDS011;109;19.806;-70.704;2023-12-22T04:02:32;39.20;;;6.57;;
249;SDS011;109;19.806;-70.704;2023-12-22T04:05:05;24.00;;;5.00;;
249;SDS011;109;19.806;-70.704;2023-12-22T04:07:42;24.97;;;6.53;;
249;SDS011;109;19.806;-70.704;2023-12-22T04:10:09;22.87;;;5.13;;
249;SDS011;109;19.806;-70.704;2023-12-22T04:12:41;19.57;;;5.80;;
249;SDS011;109;19.806;-70.704;2023-12-22T04:15:08;16.20;;;5.20;;
249;SDS011;109;19.806;-70.704;2023-12-22T04:17:41;11.33;;;4.33;;
249;SDS011;109;19.806;-70.704;2023-12-22T04:20:08;16.90;;;4.70;;
249;SDS011;109;19.806;-70.704;2023-12-22T04:22:42;15.90;;;4.13;;
249;SDS011;109;19.806;-70.704;2023-12-22T04:25:08;14.33;;;4.30;;
249;SDS011;109;19.806;-70.704;2023-12-22T04:27:41;18.60;;;4.00;;
249;SDS011;109;19.806;-70.704;2023-12-22T04:30:15;11.90;;;4.50;;
249;SDS011;109;19.806;-70.704;2023-12-22T04:32:49;17.73;;;4.83;;
249;SDS011;109;19.806;-70.704;2023-12-22T04:35:15;18.57;;;4.03;;
249;SDS011;109;19.806;-70.704;2023-12-22T04:37:48;18.40;;;4.07;;
249;SDS011;109;19.806;-70.704;2023-12-22T04:40:15;22.80;;;4.70;;
249;SDS011;109;19.806;-70.704;2023-12-22T04:42:49;13.10;;;4.00;;
249;SDS011;109;19.806;-70.704;2023-12-22T04:45:15;22.77;;;5.17;;
249;SDS011;109;19.806;-70.704;2023-12-22T04:47:49;23.43;;;4.87;;
249;SDS011;109;19.806;-70.704;2023-12-22T04:50:15;17.47;;;4.50;;
249;SDS011;109;19.806;-70.704;2023-12-22T04:52:49;13.40;;;4.00;;
249;SDS011;109;19.806;-70.704;2023-12-22T04:55:28;12.77;;;3.90;;
249;SDS011;109;19.806;-70.704;2023-12-22T04:57:55;17.10;;;4.33;;
249;SDS011;109;19.806;-70.704;2023-12-22T05:00:27;22.13;;;6.10;;
249;SDS011;109;19.806;-70.704;2023-12-22T05:02:54;19.70;;;5.97;;
249;SDS011;109;19.806;-70.704;2023-12-22T05:05:34;26.97;;;6.93;;
249;SDS011;109;19.806;-70.704;2023-12-22T05:08:06;23.00;;;8.57;;
249;SDS011;109;19.806;-70.704;2023-12-22T05:10:33;26.00;;;7.70;;
249;SDS011;109;19.806;-70.704;2023-12-22T05:13:05;25.30;;;5.67;;
249;SDS011;109;19.806;-70.704;2023-12-22T05:15:32;16.27;;;5.43;;
249;SDS011;109;19.806;-70.704;2023-12-22T05:18:04;15.10;;;4.73;;
249;SDS011;109;19.806;-70.704;2023-12-22T05:20:31;12.67;;;4.10;;
249;SDS011;109;19.806;-70.704;2023-12-22T05:23:03;19.03;;;4.33;;
249;SDS011;109;19.806;-70.704;2023-12-22T05:25:30;16.53;;;5.60;;
249;SDS011;109;19.806;-70.704;2023-12-22T05:28:02;17.40;;;3.93;;
249;SDS011;109;19.806;-70.704;2023-12-22T05:30:29;23.10;;;4.30;;
249;SDS011;109;19.806;-70.704;2023-12-22T05:33:03;23.00;;;4.97;;
249;SDS011;109;19.806;-70.704;2023-12-22T05:35:29;20.47;;;4.73;;
249;SDS011;109;19.806;-70.704;2023-12-22T05:38:02;17.57;;;5.07;;
249;SDS011;109;19.806;-70.704;2023-12-22T05:40:30;42.30;;;8.03;;
249;SDS011;109;19.806;-70.704;2023-12-22T05:43:03;68.57;;;10.27;;
249;SDS011;109;19.806;-70.704;2023-12-22T05:45:30;53.63;;;9.20;;
249;SDS011;109;19.806;-70.704;2023-12-22T05:48:04;53.63;;;9.10;;
249;SDS011;109;19.806;-70.704;2023-12-22T05:50:30;48.13;;;7.17;;
249;SDS011;109;19.806;-70.704;2023-12-22T05:53:11;23.53;;;4.50;;
249;SDS011;109;19.806;-70.704;2023-12-22T05:55:50;31.43;;;5.30;;
249;SDS011;109;19.806;-70.704;2023-12-22T05:58:17;22.50;;;6.33;;
249;SDS011;109;19.806;-70.704;2023-12-22T06:00:49;32.80;;;6.77;;
249;SDS011;109;19.806;-70.704;2023-12-22T06:03:16;32.00;;;7.80;;
249;SDS011;109;19.806;-70.704;2023-12-22T06:05:49;28.30;;;6.87;;
249;SDS011;109;19.806;-70.704;2023-12-22T06:08:16;24.10;;;5.70;;
249;SDS011;109;19.806;-70.704;2023-12-22T06:10:48;22.57;;;5.40;;
249;SDS011;109;19.806;-70.704;2023-12-22T06:13:15;28.60;;;5.80;;
249;SDS011;109;19.806;-70.704;2023-12-22T06:15:47;25.60;;;6.50;;
249;SDS011;109;19.806;-70.704;2023-12-22T06:18:14;33.73;;;6.90;;
249;SDS011;109;19.806;-70.704;2023-12-22T06:20:48;28.53;;;6.60;;
249;SDS011;109;19.806;-70.704;2023-12-22T06:23:14;23.67;;;6.10;;
249;SDS011;109;19.806;-70.704;2023-12-22T06:25:48;21.60;;;5.73;;
249;SDS011;109;19.806;-70.704;2023-12-22T06:28:14;15.87;;;4.50;;
249;SDS011;109;19.806;-70.704;2023-12-22T06:30:49;21.37;;;6.40;;
249;SDS011;109;19.806;-70.704;2023-12-22T06:33:15;24.57;;;6.60;;
249;SDS011;109;19.806;-70.704;2023-12-22T06:35:47;22.13;;;6.03;;
249;SDS011;109;19.806;-70.704;2023-12-22T06:38:25;36.20;;;5.67;;
249;SDS011;109;19.806;-70.704;2023-12-22T06:40:52;27.87;;;6.00;;
249;SDS011;109;19.806;-70.704;2023-12-22T06:43:25;26.87;;;5.10;;
249;SDS011;109;19.806;-70.704;2023-12-22T06:45:54;15.63;;;4.63;;
249;SDS011;109;19.806;-70.704;2023-12-22T06:48:28;24.73;;;4.80;;
249;SDS011;109;19.806;-70.704;2023-12-22T06:51:02;22.87;;;5.13;;
249;SDS011;109;19.806;-70.704;2023-12-22T06:53:36;26.10;;;5.77;;
249;SDS011;109;19.806;-70.704;2023-12-22T06:56:16;15.87;;;4.30;;
249;SDS011;109;19.806;-70.704;2023-12-22T06:58:42;18.40;;;5.00;;
249;SDS011;109;19.806;-70.704;2023-12-22T07:01:33;14.57;;;4.50;;
249;SDS011;109;19.806;-70.704;2023-12-22T07:04:09;24.40;;;6.47;;
249;SDS011;109;19.806;-70.704;2023-12-22T07:06:35;17.10;;;4.77;;
249;SDS011;109;19.806;-70.704;2023-12-22T07:11:46;12.63;;;3.90;;
249;SDS011;109;19.806;-70.704;2023-12-22T07:14:21;17.63;;;3.63;;
249;SDS011;109;19.806;-70.704;2023-12-22T07:16:47;12.77;;;3.90;;
249;SDS011;109;19.806;-70.704;2023-12-22T07:19:20;19.20;;;6.77;;
249;SDS011;109;19.806;-70.704;2023-12-22T07:21:48;12.40;;;4.77;;
249;SDS011;109;19.806;-70.704;2023-12-22T07:24:21;17.03;;;6.60;;
249;SDS011;109;19.806;-70.704;2023-12-22T07:26:48;13.70;;;3.90;;
249;SDS011;109;19.806;-70.704;2023-12-22T07:29:21;10.50;;;3.70;;
249;SDS011;109;19.806;-70.704;2023-12-22T07:31:47;17.60;;;4.83;;
249;SDS011;109;19.806;-70.704;2023-12-22T07:34:21;15.47;;;5.57;;
249;SDS011;109;19.806;-70.704;2023-12-22T07:36:48;14.60;;;3.67;;
249;SDS011;109;19.806;-70.704;2023-12-22T07:39:21;17.43;;;3.90;;
249;SDS011;109;19.806;-70.704;2023-12-22T07:41:55;21.50;;;3.63;;
249;SDS011;109;19.806;-70.704;2023-12-22T07:44:29;13.10;;;3.17;;
249;SDS011;109;19.806;-70.704;2023-12-22T07:46:56;30.57;;;4.93;;
249;SDS011;109;19.806;-70.704;2023-12-22T07:49:31;11.83;;;3.83;;
249;SDS011;109;19.806;-70.704;2023-12-22T07:51:57;17.00;;;3.80;;
249;SDS011;109;19.806;-70.704;2023-12-22T07:54:29;10.97;;;3.40;;
249;SDS011;109;19.806;-70.704;2023-12-22T07:57:09;25.13;;;5.70;;
249;SDS011;109;19.806;-70.704;2023-12-22T07:59:36;20.80;;;4.70;;
249;SDS011;109;19.806;-70.704;2023-12-22T08:02:10;19.73;;;4.17;;
249;SDS011;109;19.806;-70.704;2023-12-22T08:04:37;22.83;;;4.90;;
249;SDS011;109;19.806;-70.704;2023-12-22T08:07:10;20.70;;;5.10;;
249;SDS011;109;19.806;-70.704;2023-12-22T08:09:36;14.40;;;3.93;;
249;SDS011;109;19.806;-70.704;2023-12-22T08:12:10;16.60;;;4.10;;
249;SDS011;109;19.806;-70.704;2023-12-22T08:14:36;29.73;;;5.83;;
249;SDS011;109;19.806;-70.704;2023-12-22T08:17:08;19.70;;;5.03;;
249;SDS011;109;19.806;-70.704;2023-12-22T08:19:36;22.70;;;5.47;;
249;SDS011;109;19.806;-70.704;2023-12-22T08:22:10;19.47;;;5.57;;
249;SDS011;109;19.806;-70.704;2023-12-22T08:24:38;29.47;;;6.83;;
249;SDS011;109;19.806;-70.704;2023-12-22T08:27:12;31.77;;;5.93;;
249;SDS011;109;19.806;-70.704;2023-12-22T08:29:38;24.97;;;5.53;;
249;SDS011;109;19.806;-70.704;2023-12-22T08:32:11;23.17;;;5.60;;
249;SDS011;109;19.806;-70.704;2023-12-22T08:34:37;25.10;;;4.57;;
249;SDS011;109;19.806;-70.704;2023-12-22T08:37:18;26.93;;;5.13;;
249;SDS011;109;19.806;-70.704;2023-12-22T08:39:50;19.60;;;4.80;;
249;SDS011;109;19.806;-70.704;2023-12-22T08:42:18;14.70;;;4.47;;
249;SDS011;109;19.806;-70.704;2023-12-22T08:44:51;19.03;;;5.17;;
249;SDS011;109;19.806;-70.704;2023-12-22T08:47:17;20.07;;;5.80;;
249;SDS011;109;19.806;-70.704;2023-12-22T08:49:51;16.87;;;5.83;;
249;SDS011;109;19.806;-70.704;2023-12-22T08:52:17;13.57;;;5.50;;
249;SDS011;109;19.806;-70.704;2023-12-22T08:54:50;18.63;;;6.00;;
249;SDS011;109;19.806;-70.704;2023-12-22T08:57:16;9.00;;;5.07;;
249;SDS011;109;19.806;-70.704;2023-12-22T08:59:48;14.70;;;4.10;;
249;SDS011;109;19.806;-70.704;2023-12-22T09:02:15;13.63;;;4.00;;
249;SDS011;109;19.806;-70.704;2023-12-22T09:04:48;12.00;;;4.00;;
249;SDS011;109;19.806;-70.704;2023-12-22T09:07:14;12.90;;;4.97;;
249;SDS011;109;19.806;-70.704;2023-12-22T09:09:48;10.93;;;4.13;;
249;SDS011;109;19.806;-70.704;2023-12-22T09:12:14;15.57;;;4.40;;
249;SDS011;109;19.806;-70.704;2023-12-22T09:14:49;17.33;;;3.80;;
249;SDS011;109;19.806;-70.704;2023-12-22T09:17:16;9.13;;;4.00;;
249;SDS011;109;19.806;-70.704;2023-12-22T09:19:49;18.70;;;5.00;;
249;SDS011;109;19.806;-70.704;2023-12-22T09:22:15;23.57;;;6.03;;
249;SDS011;109;19.806;-70.704;2023-12-22T09:24:49;27.63;;;6.57;;
249;SDS011;109;19.806;-70.704;2023-12-22T09:27:16;16.33;;;4.90;;
249;SDS011;109;19.806;-70.704;2023-12-22T09:29:57;27.10;;;5.50;;
249;SDS011;109;19.806;-70.704;2023-12-22T09:32:31;31.43;;;6.03;;
249;SDS011;109;19.806;-70.704;2023-12-22T09:34:57;28.47;;;4.87;;
249;SDS011;109;19.806;-70.704;2023-12-22T09:37:33;25.97;;;5.77;;
249;SDS011;109;19.806;-70.704;2023-12-22T09:39:59;21.63;;;4.10;;
249;SDS011;109;19.806;-70.704;2023-12-22T09:42:33;13.10;;;3.70;;
249;SDS011;109;19.806;-70.704;2023-12-22T09:44:59;30.47;;;4.03;;
249;SDS011;109;19.806;-70.704;2023-12-22T09:47:36;25.93;;;4.67;;
249;SDS011;109;19.806;-70.704;2023-12-22T09:50:05;22.20;;;4.70;;
249;SDS011;109;19.806;-70.704;2023-12-22T09:52:40;23.70;;;5.43;;
249;SDS011;109;19.806;-70.704;2023-12-22T09:55:22;28.60;;;4.63;;
249;SDS011;109;19.806;-70.704;2023-12-22T09:57:51;11.87;;;3.80;;
249;SDS011;109;19.806;-70.704;2023-12-22T10:00:26;22.00;;;4.00;;
249;SDS011;109;19.806;-70.704;2023-12-22T10:02:54;15.93;;;4.53;;
249;SDS011;109;19.806;-70.704;2023-12-22T10:05:28;18.90;;;4.70;;
249;SDS011;109;19.806;-70.704;2023-12-22T10:07:55;20.50;;;3.97;;
249;SDS011;109;19.806;-70.704;2023-12-22T10:10:31;21.00;;;3.70;;
249;SDS011;109;19.806;-70.704;2023-12-22T10:12:59;22.77;;;3.83;;
249;SDS011;109;19.806;-70.704;2023-12-22T10:15:39;21.97;;;4.43;;
249;SDS011;109;19.806;-70.704;2023-12-22T10:18:15;15.40;;;3.83;;
249;SDS011;109;19.806;-70.704;2023-12-22T10:20:43;23.67;;;4.83;;
249;SDS011;109;19.806;-70.704;2023-12-22T10:23:18;19.40;;;3.77;;
249;SDS011;109;19.806;-70.704;2023-12-22T10:25:44;10.13;;;3.10;;
249;SDS011;109;19.806;-70.704;2023-12-22T10:28:27;15.47;;;3.70;;
249;SDS011;109;19.806;-70.704;2023-12-22T10:31:01;18.80;;;4.13;;
249;SDS011;109;19.806;-70.704;2023-12-22T10:33:39;18.77;;;4.77;;
249;SDS011;109;19.806;-70.704;2023-12-22T10:36:06;18.93;;;4.00;;
249;SDS011;109;19.806;-70.704;2023-12-22T10:38:40;23.03;;;4.20;;
249;SDS011;109;19.806;-70.704;2023-12-22T10:41:08;20.50;;;4.10;;
249;SDS011;109;19.806;-70.704;2023-12-22T10:43:42;19.53;;;4.30;;
249;SDS011;109;19.806;-70.704;2023-12-22T10:46:09;15.80;;;3.63;;
249;SDS011;109;19.806;-70.704;2023-12-22T10:48:43;13.63;;;3.30;;
249;SDS011;109;19.806;-70.704;2023-12-22T11:15:20;18.90;;;4.43;;
249;SDS011;109;19.806;-70.704;2023-12-22T11:17:48;19.03;;;4.80;;
249;SDS011;109;19.806;-70.704;2023-12-22T11:20:17;14.60;;;4.50;;
249;SDS011;109;19.806;-70.704;2023-12-22T11:22:44;17.83;;;4.00;;
249;SDS011;109;19.806;-70.704;2023-12-22T11:25:12;8.70;;;3.90;;
249;SDS011;109;19.806;-70.704;2023-12-22T11:27:41;15.23;;;3.60;;
249;SDS011;109;19.806;-70.704;2023-12-22T11:30:10;17.20;;;4.60;;
249;SDS011;109;19.806;-70.704;2023-12-22T11:32:41;21.37;;;5.13;;
249;SDS011;109;19.806;-70.704;2023-12-22T11:35:10;11.47;;;4.83;;
249;SDS011;109;19.806;-70.704;2023-12-22T11:37:37;21.33;;;6.57;;
249;SDS011;109;19.806;-70.704;2023-12-22T11:40:04;13.23;;;5.70;;
249;SDS011;109;19.806;-70.704;2023-12-22T11:42:33;14.83;;;6.00;;
249;SDS011;109;19.806;-70.704;2023-12-22T11:45:11;15.97;;;5.60;;
249;SDS011;109;19.806;-70.704;2023-12-22T11:47:41;10.87;;;4.80;;
249;SDS011;109;19.806;-70.704;2023-12-22T11:50:11;13.27;;;5.00;;
249;SDS011;109;19.806;-70.704;2023-12-22T11:52:38;13.00;;;5.50;;
249;SDS011;109;19.806;-70.704;2023-12-22T11:55:07;17.33;;;6.33;;
249;SDS011;109;19.806;-70.704;2023-12-22T11:57:34;10.10;;;5.40;;
249;SDS011;109;19.806;-70.704;2023-12-22T12:00:06;10.00;;;4.60;;
249;SDS011;109;19.806;-70.704;2023-12-22T12:02:40;13.93;;;5.03;;
249;SDS011;109;19.806;-70.704;2023-12-22T12:05:07;8.93;;;4.60;;
249;SDS011;109;19.806;-70.704;2023-12-22T12:07:39;11.00;;;4.27;;
249;SDS011;109;19.806;-70.704;2023-12-22T12:10:12;8.73;;;3.50;;
249;SDS011;109;19.806;-70.704;2023-12-22T12:13:05;16.43;;;3.60;;
249;SDS011;109;19.806;-70.704;2023-12-22T12:15:35;12.27;;;4.03;;
249;SDS011;109;19.806;-70.704;2023-12-22T12:18:04;10.40;;;4.10;;
249;SDS011;109;19.806;-70.704;2023-12-22T12:20:34;8.00;;;3.90;;
249;SDS011;109;19.806;-70.704;2023-12-22T12:23:01;13.20;;;4.23;;
249;SDS011;109;19.806;-70.704;2023-12-22T12:25:28;17.67;;;4.53;;
249;SDS011;109;19.806;-70.704;2023-12-22T12:28:05;16.83;;;4.10;;
249;SDS011;109;19.806;-70.704;2023-12-22T12:30:33;10.70;;;3.33;;
249;SDS011;109;19.806;-70.704;2023-12-22T12:33:10;11.17;;;3.83;;
249;SDS011;109;19.806;-70.704;2023-12-22T12:35:38;10.70;;;3.60;;
249;SDS011;109;19.806;-70.704;2023-12-22T12:38:05;17.10;;;5.50;;
249;SDS011;109;19.806;-70.704;2023-12-22T12:40:32;11.90;;;3.67;;
249;SDS011;109;19.806;-70.704;2023-12-22T12:43:01;8.70;;;3.60;;
249;SDS011;109;19.806;-70.704;2023-12-22T12:45:28;13.10;;;3.93;;
249;SDS011;109;19.806;-70.704;2023-12-22T12:47:58;9.40;;;3.80;;
249;SDS011;109;19.806;-70.704;2023-12-22T12:50:26;8.47;;;3.60;;
249;SDS011;109;19.806;-70.704;2023-12-22T12:52:59;9.60;;;3.30;;
249;SDS011;109;19.806;-70.704;2023-12-22T12:55:26;9.50;;;3.30;;
249;SDS011;109;19.806;-70.704;2023-12-22T12:57:54;13.13;;;4.27;;
249;SDS011;109;19.806;-70.704;2023-12-22T13:03:01;11.17;;;3.67;;
249;SDS011;109;19.806;-70.704;2023-12-22T13:05:30;14.03;;;4.03;;
249;SDS011;109;19.806;-70.704;2023-12-22T13:08:12;11.77;;;4.50;;
249;SDS011;109;19.806;-70.704;2023-12-22T13:10:39;27.50;;;6.87;;
249;SDS011;109;19.806;-70.704;2023-12-22T13:13:06;15.20;;;5.20;;
249;SDS011;109;19.806;-70.704;2023-12-22T13:15:33;13.40;;;4.10;;
249;SDS011;109;19.806;-70.704;2023-12-22T13:18:00;26.73;;;4.87;;
249;SDS011;109;19.806;-70.704;2023-12-22T13:20:27;17.07;;;4.97;;
249;SDS011;109;19.806;-70.704;2023-12-22T13:22:53;24.87;;;6.40;;
249;SDS011;109;19.806;-70.704;2023-12-22T13:25:20;30.83;;;5.37;;
249;SDS011;109;19.806;-70.704;2023-12-22T13:27:49;23.07;;;5.70;;
249;SDS011;109;19.806;-70.704;2023-12-22T13:30:33;30.07;;;5.60;;
249;SDS011;109;19.806;-70.704;2023-12-22T13:32:59;32.80;;;6.87;;
249;SDS011;109;19.806;-70.704;2023-12-22T13:35:26;37.67;;;8.03;;
249;SDS011;109;19.806;-70.704;2023-12-22T13:37:54;28.03;;;8.03;;
249;SDS011;109;19.806;-70.704;2023-12-22T13:40:21;34.50;;;8.10;;
249;SDS011;109;19.806;-70.704;2023-12-22T13:42:57;25.40;;;6.70;;
249;SDS011;109;19.806;-70.704;2023-12-22T13:45:24;28.03;;;6.90;;
249;SDS011;109;19.806;-70.704;2023-12-22T13:47:51;23.73;;;6.47;;
249;SDS011;109;19.806;-70.704;2023-12-22T13:50:18;34.57;;;7.20;;
249;SDS011;109;19.806;-70.704;2023-12-22T13:52:48;25.27;;;6.70;;
249;SDS011;109;19.806;-70.704;2023-12-22T13:55:16;23.67;;;6.03;;
249;SDS011;109;19.806;-70.704;2023-12-22T13:57:44;23.00;;;5.23;;
249;SDS011;109;19.806;-70.704;2023-12-22T14:02:47;29.67;;;5.70;;
249;SDS011;109;19.806;-70.704;2023-12-22T14:05:18;23.07;;;5.73;;
249;SDS011;109;19.806;-70.704;2023-12-22T14:07:45;22.63;;;5.80;;
249;SDS011;109;19.806;-70.704;2023-12-22T14:10:12;20.33;;;5.90;;
249;SDS011;109;19.806;-70.704;2023-12-22T14:12:40;18.93;;;5.63;;
249;SDS011;109;19.806;-70.704;2023-12-22T14:15:07;20.20;;;5.80;;
249;SDS011;109;19.806;-70.704;2023-12-22T14:17:35;27.57;;;6.77;;
249;SDS011;109;19.806;-70.704;2023-12-22T14:20:01;31.00;;;6.50;;
249;SDS011;109;19.806;-70.704;2023-12-22T14:22:30;33.30;;;5.40;;
249;SDS011;109;19.806;-70.704;2023-12-22T14:24:57;35.67;;;6.47;;
249;SDS011;109;19.806;-70.704;2023-12-22T14:27:23;21.70;;;5.70;;
249;SDS011;109;19.806;-70.704;2023-12-22T14:29:50;21.20;;;5.00;;
249;SDS011;109;19.806;-70.704;2023-12-22T14:32:16;16.83;;;5.33;;
249;SDS011;109;19.806;-70.704;2023-12-22T14:34:47;11.17;;;4.13;;
249;SDS011;109;19.806;-70.704;2023-12-22T14:37:15;11.10;;;3.93;;
249;SDS011;109;19.806;-70.704;2023-12-22T14:39:45;10.77;;;3.60;;
249;SDS011;109;19.806;-70.704;2023-12-22T14:42:11;10.00;;;3.70;;
249;SDS011;109;19.806;-70.704;2023-12-22T14:44:38;15.17;;;3.60;;
249;SDS011;109;19.806;-70.704;2023-12-22T14:47:08;14.93;;;3.80;;
249;SDS011;109;19.806;-70.704;2023-12-22T14:49:35;26.93;;;5.60;;
249;SDS011;109;19.806;-70.704;2023-12-22T14:52:01;14.47;;;3.70;;
249;SDS011;109;19.806;-70.704;2023-12-22T14:54:28;22.23;;;5.33;;
249;SDS011;109;19.806;-70.704;2023-12-22T14:56:54;17.70;;;4.17;;
249;SDS011;109;19.806;-70.704;2023-12-22T14:59:20;9.97;;;3.20;;
249;SDS011;109;19.806;-70.704;2023-12-22T15:01:47;7.90;;;3.20;;
249;SDS011;109;19.806;-70.704;2023-12-22T15:04:13;10.83;;;3.10;;
249;SDS011;109;19.806;-70.704;2023-12-22T15:06:41;29.20;;;4.80;;
249;SDS011;109;19.806;-70.704;2023-12-22T15:09:10;18.30;;;5.73;;
249;SDS011;109;19.806;-70.704;2023-12-22T15:11:43;28.83;;;6.43;;
249;SDS011;109;19.806;-70.704;2023-12-22T15:14:10;40.00;;;6.37;;
249;SDS011;109;19.806;-70.704;2023-12-22T15:16:41;21.57;;;5.47;;
249;SDS011;109;19.806;-70.704;2023-12-22T15:19:10;23.90;;;6.17;;
249;SDS011;109;19.806;-70.704;2023-12-22T15:21:40;36.17;;;6.63;;
249;SDS011;109;19.806;-70.704;2023-12-22T15:24:08;42.43;;;6.20;;
249;SDS011;109;19.806;-70.704;2023-12-22T15:26:35;25.03;;;5.30;;
249;SDS011;109;19.806;-70.704;2023-12-22T15:29:02;38.50;;;7.20;;
249;SDS011;109;19.806;-70.704;2023-12-22T15:31:30;32.10;;;6.23;;
249;SDS011;109;19.806;-70.704;2023-12-22T15:33:57;17.20;;;4.50;;
249;SDS011;109;19.806;-70.704;2023-12-22T15:36:24;11.70;;;4.00;;
249;SDS011;109;19.806;-70.704;2023-12-22T15:38:50;40.37;;;7.53;;
249;SDS011;109;19.806;-70.704;2023-12-22T15:41:17;50.13;;;9.17;;
249;SDS011;109;19.806;-70.704;2023-12-22T15:43:43;55.30;;;8.97;;
249;SDS011;109;19.806;-70.704;2023-12-22T15:46:10;23.17;;;4.40;;
249;SDS011;109;19.806;-70.704;2023-12-22T15:48:37;20.40;;;3.30;;
249;SDS011;109;19.806;-70.704;2023-12-22T15:53:40;22.13;;;4.43;;
249;SDS011;109;19.806;-70.704;2023-12-22T15:56:10;25.30;;;4.90;;